sensor_id;sensor_type;location;lat;lon;timestamp;P1;durP1;ratioP1;P2;durP2;ratioP2
49101;SDS011;34913;47.520;19.186;2023-03-19T00:01:52;14.32;;;10.15;;
49101;SDS011;34913;47.520;19.186;2023-03-19T00:04:18;15.25;;;10.38;;
49101;SDS011;34913;47.520;19.186;2023-03-19T00:06:43;13.75;;;9.88;;
49101;SDS011;34913;47.520;19.186;2023-03-19T00:09:09;13.85;;;9.63;;
49101;SDS011;34913;47.520;19.186;2023-03-19T00:11:35;17.10;;;9.65;;
49101;SDS011;34913;47.520;19.186;2023-03-19T00:14:01;13.93;;;9.82;;
49101;SDS011;34913;47.520;19.186;2023-03-19T00:16:26;14.90;;;9.98;;
49101;SDS011;34913;47.520;19.186;2023-03-19T00:18:52;14.75;;;9.68;;
49101;SDS011;34913;47.520;19.186;2023-03-19T00:21:19;14.52;;;9.63;;
49101;SDS011;34913;47.520;19.186;2023-03-19T00:23:45;13.75;;;9.50;;
49101;SDS011;34913;47.520;19.186;2023-03-19T00:26:11;14.95;;;10.05;;
49101;SDS011;34913;47.520;19.186;2023-03-19T00:28:36;15.15;;;10.00;;
49101;SDS011;34913;47.520;19.186;2023-03-19T00:31:08;14.93;;;9.40;;
49101;SDS011;34913;47.520;19.186;2023-03-19T00:33:36;15.15;;;10.35;;
49101;SDS011;34913;47.520;19.186;2023-03-19T00:36:02;14.00;;;9.63;;
49101;SDS011;34913;47.520;19.186;2023-03-19T00:38:28;15.40;;;9.05;;
49101;SDS011;34913;47.520;19.186;2023-03-19T00:40:54;14.38;;;9.73;;
49101;SDS011;34913;47.520;19.186;2023-03-19T00:43:19;13.95;;;8.95;;
49101;SDS011;34913;47.520;19.186;2023-03-19T00:45:45;14.10;;;9.20;;
49101;SDS011;34913;47.520;19.186;2023-03-19T00:48:10;14.77;;;9.35;;
49101;SDS011;34913;47.520;19.186;2023-03-19T00:50:36;13.00;;;9.00;;
49101;SDS011;34913;47.520;19.186;2023-03-19T00:53:02;14.93;;;9.00;;
49101;SDS011;34913;47.520;19.186;2023-03-19T00:55:27;15.00;;;9.35;;
49101;SDS011;34913;47.520;19.186;2023-03-19T00:57:52;13.05;;;9.07;;
49101;SDS011;34913;47.520;19.186;2023-03-19T01:00:18;14.02;;;9.40;;
49101;SDS011;34913;47.520;19.186;2023-03-19T01:02:44;11.90;;;8.40;;
49101;SDS011;34913;47.520;19.186;2023-03-19T01:05:10;12.68;;;8.55;;
49101;SDS011;34913;47.520;19.186;2023-03-19T01:07:37;13.82;;;9.45;;
49101;SDS011;34913;47.520;19.186;2023-03-19T01:10:02;12.93;;;8.80;;
49101;SDS011;34913;47.520;19.186;2023-03-19T01:12:28;15.32;;;9.38;;
49101;SDS011;34913;47.520;19.186;2023-03-19T01:14:54;13.75;;;8.88;;
49101;SDS011;34913;47.520;19.186;2023-03-19T01:17:19;14.07;;;8.60;;
49101;SDS011;34913;47.520;19.186;2023-03-19T01:19:45;13.43;;;8.85;;
49101;SDS011;34913;47.520;19.186;2023-03-19T01:22:10;12.40;;;8.48;;
49101;SDS011;34913;47.520;19.186;2023-03-19T01:24:37;11.50;;;8.48;;
49101;SDS011;34913;47.520;19.186;2023-03-19T01:27:02;13.77;;;8.93;;
49101;SDS011;34913;47.520;19.186;2023-03-19T01:29:28;12.25;;;8.25;;
49101;SDS011;34913;47.520;19.186;2023-03-19T01:31:53;14.35;;;8.23;;
49101;SDS011;34913;47.520;19.186;2023-03-19T01:34:18;13.25;;;8.48;;
49101;SDS011;34913;47.520;19.186;2023-03-19T01:36:45;13.35;;;8.35;;
49101;SDS011;34913;47.520;19.186;2023-03-19T01:39:11;13.32;;;9.13;;
49101;SDS011;34913;47.520;19.186;2023-03-19T01:41:36;13.50;;;8.45;;
49101;SDS011;34913;47.520;19.186;2023-03-19T01:44:02;13.45;;;8.35;;
49101;SDS011;34913;47.520;19.186;2023-03-19T01:46:28;11.65;;;7.72;;
49101;SDS011;34913;47.520;19.186;2023-03-19T01:48:57;13.00;;;8.02;;
49101;SDS011;34913;47.520;19.186;2023-03-19T01:51:26;15.77;;;8.38;;
49101;SDS011;34913;47.520;19.186;2023-03-19T01:53:58;12.80;;;8.18;;
49101;SDS011;34913;47.520;19.186;2023-03-19T01:56:27;13.10;;;8.18;;
49101;SDS011;34913;47.520;19.186;2023-03-19T02:01:31;14.25;;;8.20;;
49101;SDS011;34913;47.520;19.186;2023-03-19T02:04:00;13.95;;;8.07;;
49101;SDS011;34913;47.520;19.186;2023-03-19T02:06:26;12.30;;;8.07;;
49101;SDS011;34913;47.520;19.186;2023-03-19T02:08:54;12.18;;;7.97;;
49101;SDS011;34913;47.520;19.186;2023-03-19T02:11:20;12.80;;;8.68;;
49101;SDS011;34913;47.520;19.186;2023-03-19T02:13:47;14.55;;;8.57;;
49101;SDS011;34913;47.520;19.186;2023-03-19T02:16:13;12.55;;;8.40;;
49101;SDS011;34913;47.520;19.186;2023-03-19T02:18:40;13.75;;;8.30;;
49101;SDS011;34913;47.520;19.186;2023-03-19T02:21:07;12.45;;;8.80;;
49101;SDS011;34913;47.520;19.186;2023-03-19T02:23:44;12.32;;;8.10;;
49101;SDS011;34913;47.520;19.186;2023-03-19T02:26:12;13.65;;;8.25;;
49101;SDS011;34913;47.520;19.186;2023-03-19T02:28:41;14.73;;;8.35;;
49101;SDS011;34913;47.520;19.186;2023-03-19T02:31:08;13.32;;;7.97;;
49101;SDS011;34913;47.520;19.186;2023-03-19T02:33:35;13.30;;;8.02;;
49101;SDS011;34913;47.520;19.186;2023-03-19T02:36:01;13.77;;;7.93;;
49101;SDS011;34913;47.520;19.186;2023-03-19T02:38:29;12.73;;;8.27;;
49101;SDS011;34913;47.520;19.186;2023-03-19T02:41:02;14.50;;;7.75;;
49101;SDS011;34913;47.520;19.186;2023-03-19T02:46:00;11.95;;;7.70;;
49101;SDS011;34913;47.520;19.186;2023-03-19T02:48:26;12.32;;;7.82;;
49101;SDS011;34913;47.520;19.186;2023-03-19T02:50:52;11.27;;;7.38;;
49101;SDS011;34913;47.520;19.186;2023-03-19T02:53:18;15.70;;;7.88;;
49101;SDS011;34913;47.520;19.186;2023-03-19T02:55:43;12.85;;;8.25;;
49101;SDS011;34913;47.520;19.186;2023-03-19T02:58:09;11.35;;;7.68;;
49101;SDS011;34913;47.520;19.186;2023-03-19T03:00:34;12.02;;;7.97;;
49101;SDS011;34913;47.520;19.186;2023-03-19T03:02:59;12.13;;;7.47;;
49101;SDS011;34913;47.520;19.186;2023-03-19T03:05:25;11.65;;;7.18;;
49101;SDS011;34913;47.520;19.186;2023-03-19T03:07:51;14.43;;;8.38;;
49101;SDS011;34913;47.520;19.186;2023-03-19T03:10:17;13.18;;;8.40;;
49101;SDS011;34913;47.520;19.186;2023-03-19T03:12:42;13.00;;;7.70;;
49101;SDS011;34913;47.520;19.186;2023-03-19T03:15:08;13.05;;;8.30;;
49101;SDS011;34913;47.520;19.186;2023-03-19T03:17:38;13.43;;;7.55;;
49101;SDS011;34913;47.520;19.186;2023-03-19T03:20:05;11.63;;;7.32;;
49101;SDS011;34913;47.520;19.186;2023-03-19T03:22:31;12.38;;;7.93;;
49101;SDS011;34913;47.520;19.186;2023-03-19T03:24:57;13.77;;;7.60;;
49101;SDS011;34913;47.520;19.186;2023-03-19T03:27:23;13.63;;;7.47;;
49101;SDS011;34913;47.520;19.186;2023-03-19T03:29:48;12.60;;;7.28;;
49101;SDS011;34913;47.520;19.186;2023-03-19T03:32:14;14.65;;;7.10;;
49101;SDS011;34913;47.520;19.186;2023-03-19T03:34:40;10.65;;;7.00;;
49101;SDS011;34913;47.520;19.186;2023-03-19T03:37:06;10.82;;;6.97;;
49101;SDS011;34913;47.520;19.186;2023-03-19T03:39:31;11.40;;;7.05;;
49101;SDS011;34913;47.520;19.186;2023-03-19T03:41:57;14.57;;;6.95;;
49101;SDS011;34913;47.520;19.186;2023-03-19T03:44:22;12.10;;;7.15;;
49101;SDS011;34913;47.520;19.186;2023-03-19T03:46:48;9.85;;;6.75;;
49101;SDS011;34913;47.520;19.186;2023-03-19T03:49:13;12.23;;;6.82;;
49101;SDS011;34913;47.520;19.186;2023-03-19T03:51:38;9.93;;;6.78;;
49101;SDS011;34913;47.520;19.186;2023-03-19T03:54:05;11.15;;;6.65;;
49101;SDS011;34913;47.520;19.186;2023-03-19T03:56:31;10.13;;;6.35;;
49101;SDS011;34913;47.520;19.186;2023-03-19T03:58:57;9.48;;;6.53;;
49101;SDS011;34913;47.520;19.186;2023-03-19T04:01:23;13.27;;;6.95;;
49101;SDS011;34913;47.520;19.186;2023-03-19T04:03:48;10.40;;;6.72;;
49101;SDS011;34913;47.520;19.186;2023-03-19T04:06:17;11.90;;;7.05;;
49101;SDS011;34913;47.520;19.186;2023-03-19T04:08:45;9.25;;;6.80;;
49101;SDS011;34913;47.520;19.186;2023-03-19T04:11:11;10.55;;;6.50;;
49101;SDS011;34913;47.520;19.186;2023-03-19T04:13:37;10.43;;;6.82;;
49101;SDS011;34913;47.520;19.186;2023-03-19T04:16:03;14.25;;;6.75;;
49101;SDS011;34913;47.520;19.186;2023-03-19T04:18:29;10.00;;;7.07;;
49101;SDS011;34913;47.520;19.186;2023-03-19T04:20:55;11.57;;;7.28;;
49101;SDS011;34913;47.520;19.186;2023-03-19T04:23:21;13.95;;;8.40;;
49101;SDS011;34913;47.520;19.186;2023-03-19T04:25:47;17.02;;;8.63;;
49101;SDS011;34913;47.520;19.186;2023-03-19T04:28:13;14.73;;;9.43;;
49101;SDS011;34913;47.520;19.186;2023-03-19T04:30:38;18.67;;;9.60;;
49101;SDS011;34913;47.520;19.186;2023-03-19T04:33:04;17.35;;;9.88;;
49101;SDS011;34913;47.520;19.186;2023-03-19T04:35:30;17.67;;;10.02;;
49101;SDS011;34913;47.520;19.186;2023-03-19T04:37:56;17.50;;;9.82;;
49101;SDS011;34913;47.520;19.186;2023-03-19T04:40:21;18.23;;;10.50;;
49101;SDS011;34913;47.520;19.186;2023-03-19T04:42:47;18.83;;;10.45;;
49101;SDS011;34913;47.520;19.186;2023-03-19T04:45:13;17.80;;;9.80;;
49101;SDS011;34913;47.520;19.186;2023-03-19T04:47:38;19.48;;;10.90;;
49101;SDS011;34913;47.520;19.186;2023-03-19T04:50:04;18.45;;;10.32;;
49101;SDS011;34913;47.520;19.186;2023-03-19T04:52:31;20.00;;;10.55;;
49101;SDS011;34913;47.520;19.186;2023-03-19T04:54:57;17.70;;;10.63;;
49101;SDS011;34913;47.520;19.186;2023-03-19T04:57:23;22.17;;;11.32;;
49101;SDS011;34913;47.520;19.186;2023-03-19T04:59:48;17.73;;;10.27;;
49101;SDS011;34913;47.520;19.186;2023-03-19T05:02:14;17.92;;;10.50;;
49101;SDS011;34913;47.520;19.186;2023-03-19T05:04:40;21.42;;;10.43;;
49101;SDS011;34913;47.520;19.186;2023-03-19T05:07:05;22.00;;;11.27;;
49101;SDS011;34913;47.520;19.186;2023-03-19T05:09:31;19.13;;;10.75;;
49101;SDS011;34913;47.520;19.186;2023-03-19T05:11:57;19.33;;;10.55;;
49101;SDS011;34913;47.520;19.186;2023-03-19T05:14:23;18.38;;;10.32;;
49101;SDS011;34913;47.520;19.186;2023-03-19T05:16:48;21.08;;;11.20;;
49101;SDS011;34913;47.520;19.186;2023-03-19T05:19:14;20.35;;;11.45;;
49101;SDS011;34913;47.520;19.186;2023-03-19T05:21:40;18.70;;;10.68;;
49101;SDS011;34913;47.520;19.186;2023-03-19T05:24:05;17.55;;;10.30;;
49101;SDS011;34913;47.520;19.186;2023-03-19T05:26:31;18.70;;;10.15;;
49101;SDS011;34913;47.520;19.186;2023-03-19T05:28:56;20.65;;;10.70;;
49101;SDS011;34913;47.520;19.186;2023-03-19T05:31:22;15.88;;;9.70;;
49101;SDS011;34913;47.520;19.186;2023-03-19T05:33:47;17.73;;;9.48;;
49101;SDS011;34913;47.520;19.186;2023-03-19T05:36:13;16.52;;;9.88;;
49101;SDS011;34913;47.520;19.186;2023-03-19T05:38:38;17.42;;;9.57;;
49101;SDS011;34913;47.520;19.186;2023-03-19T05:41:05;19.17;;;9.38;;
49101;SDS011;34913;47.520;19.186;2023-03-19T05:43:32;16.25;;;9.10;;
49101;SDS011;34913;47.520;19.186;2023-03-19T05:45:58;18.27;;;9.30;;
49101;SDS011;34913;47.520;19.186;2023-03-19T05:48:23;15.85;;;9.30;;
49101;SDS011;34913;47.520;19.186;2023-03-19T05:50:50;17.33;;;9.30;;
49101;SDS011;34913;47.520;19.186;2023-03-19T05:53:16;14.90;;;9.27;;
49101;SDS011;34913;47.520;19.186;2023-03-19T05:55:42;15.70;;;9.63;;
49101;SDS011;34913;47.520;19.186;2023-03-19T05:58:08;11.98;;;7.30;;
49101;SDS011;34913;47.520;19.186;2023-03-19T06:00:33;13.45;;;7.80;;
49101;SDS011;34913;47.520;19.186;2023-03-19T06:02:59;10.60;;;6.30;;
49101;SDS011;34913;47.520;19.186;2023-03-19T06:05:24;11.15;;;6.70;;
49101;SDS011;34913;47.520;19.186;2023-03-19T06:07:50;10.20;;;6.13;;
49101;SDS011;34913;47.520;19.186;2023-03-19T06:10:15;9.35;;;5.97;;
49101;SDS011;34913;47.520;19.186;2023-03-19T06:12:41;13.23;;;6.65;;
49101;SDS011;34913;47.520;19.186;2023-03-19T06:15:07;10.02;;;6.30;;
49101;SDS011;34913;47.520;19.186;2023-03-19T06:17:33;10.98;;;5.93;;
49101;SDS011;34913;47.520;19.186;2023-03-19T06:19:59;9.15;;;5.45;;
49101;SDS011;34913;47.520;19.186;2023-03-19T06:22:25;8.52;;;5.35;;
49101;SDS011;34913;47.520;19.186;2023-03-19T06:24:51;9.23;;;5.50;;
49101;SDS011;34913;47.520;19.186;2023-03-19T06:27:16;8.65;;;5.30;;
49101;SDS011;34913;47.520;19.186;2023-03-19T06:29:42;8.15;;;5.20;;
49101;SDS011;34913;47.520;19.186;2023-03-19T06:32:07;7.43;;;4.72;;
49101;SDS011;34913;47.520;19.186;2023-03-19T06:34:33;6.78;;;4.70;;
49101;SDS011;34913;47.520;19.186;2023-03-19T06:36:59;5.13;;;3.95;;
49101;SDS011;34913;47.520;19.186;2023-03-19T06:39:26;7.70;;;4.05;;
49101;SDS011;34913;47.520;19.186;2023-03-19T06:41:51;8.23;;;4.55;;
49101;SDS011;34913;47.520;19.186;2023-03-19T06:44:17;6.35;;;4.60;;
49101;SDS011;34913;47.520;19.186;2023-03-19T06:46:45;5.78;;;4.22;;
49101;SDS011;34913;47.520;19.186;2023-03-19T06:49:10;6.78;;;3.95;;
49101;SDS011;34913;47.520;19.186;2023-03-19T06:51:36;6.45;;;4.25;;
49101;SDS011;34913;47.520;19.186;2023-03-19T06:54:01;5.70;;;3.88;;
49101;SDS011;34913;47.520;19.186;2023-03-19T06:56:27;6.07;;;4.13;;
49101;SDS011;34913;47.520;19.186;2023-03-19T06:58:53;5.65;;;4.38;;
49101;SDS011;34913;47.520;19.186;2023-03-19T07:01:18;6.95;;;4.20;;
49101;SDS011;34913;47.520;19.186;2023-03-19T07:03:44;5.88;;;4.28;;
49101;SDS011;34913;47.520;19.186;2023-03-19T07:06:09;7.32;;;4.30;;
49101;SDS011;34913;47.520;19.186;2023-03-19T07:08:35;5.88;;;4.10;;
49101;SDS011;34913;47.520;19.186;2023-03-19T07:11:04;7.88;;;4.60;;
49101;SDS011;34913;47.520;19.186;2023-03-19T07:13:31;6.00;;;4.35;;
49101;SDS011;34913;47.520;19.186;2023-03-19T07:15:57;6.35;;;4.05;;
49101;SDS011;34913;47.520;19.186;2023-03-19T07:18:23;5.53;;;4.00;;
49101;SDS011;34913;47.520;19.186;2023-03-19T07:20:49;6.25;;;3.97;;
49101;SDS011;34913;47.520;19.186;2023-03-19T07:23:16;6.72;;;3.85;;
49101;SDS011;34913;47.520;19.186;2023-03-19T07:25:42;9.02;;;4.07;;
49101;SDS011;34913;47.520;19.186;2023-03-19T07:28:08;6.10;;;3.90;;
49101;SDS011;34913;47.520;19.186;2023-03-19T07:30:33;6.00;;;4.22;;
49101;SDS011;34913;47.520;19.186;2023-03-19T07:32:59;5.63;;;4.22;;
49101;SDS011;34913;47.520;19.186;2023-03-19T07:35:25;7.85;;;4.20;;
49101;SDS011;34913;47.520;19.186;2023-03-19T07:37:51;6.13;;;3.90;;
49101;SDS011;34913;47.520;19.186;2023-03-19T07:40:16;5.93;;;3.90;;
49101;SDS011;34913;47.520;19.186;2023-03-19T07:42:42;7.07;;;4.10;;
49101;SDS011;34913;47.520;19.186;2023-03-19T07:45:07;6.63;;;4.03;;
49101;SDS011;34913;47.520;19.186;2023-03-19T07:47:33;7.20;;;4.05;;
49101;SDS011;34913;47.520;19.186;2023-03-19T07:49:59;6.10;;;4.03;;
49101;SDS011;34913;47.520;19.186;2023-03-19T07:52:24;7.95;;;4.50;;
49101;SDS011;34913;47.520;19.186;2023-03-19T07:54:50;5.28;;;3.88;;
49101;SDS011;34913;47.520;19.186;2023-03-19T07:57:16;5.70;;;3.85;;
49101;SDS011;34913;47.520;19.186;2023-03-19T07:59:43;5.80;;;3.92;;
49101;SDS011;34913;47.520;19.186;2023-03-19T08:02:12;6.07;;;3.80;;
49101;SDS011;34913;47.520;19.186;2023-03-19T08:04:38;6.30;;;3.63;;
49101;SDS011;34913;47.520;19.186;2023-03-19T08:07:03;6.60;;;4.03;;
49101;SDS011;34913;47.520;19.186;2023-03-19T08:09:30;5.97;;;4.00;;
49101;SDS011;34913;47.520;19.186;2023-03-19T08:11:55;5.65;;;3.70;;
49101;SDS011;34913;47.520;19.186;2023-03-19T08:14:21;5.70;;;3.90;;
49101;SDS011;34913;47.520;19.186;2023-03-19T08:16:50;6.07;;;4.53;;
49101;SDS011;34913;47.520;19.186;2023-03-19T08:19:15;5.78;;;4.53;;
49101;SDS011;34913;47.520;19.186;2023-03-19T08:21:41;6.28;;;4.40;;
49101;SDS011;34913;47.520;19.186;2023-03-19T08:24:07;8.57;;;4.65;;
49101;SDS011;34913;47.520;19.186;2023-03-19T08:26:32;8.70;;;5.10;;
49101;SDS011;34913;47.520;19.186;2023-03-19T08:28:58;6.95;;;4.43;;
49101;SDS011;34913;47.520;19.186;2023-03-19T08:31:24;6.30;;;4.90;;
49101;SDS011;34913;47.520;19.186;2023-03-19T08:33:50;6.68;;;4.78;;
49101;SDS011;34913;47.520;19.186;2023-03-19T08:36:15;8.70;;;4.57;;
49101;SDS011;34913;47.520;19.186;2023-03-19T08:38:41;8.63;;;4.93;;
49101;SDS011;34913;47.520;19.186;2023-03-19T08:41:08;6.88;;;4.82;;
49101;SDS011;34913;47.520;19.186;2023-03-19T08:43:34;7.35;;;4.82;;
49101;SDS011;34913;47.520;19.186;2023-03-19T08:46:01;6.15;;;4.38;;
49101;SDS011;34913;47.520;19.186;2023-03-19T08:48:28;6.07;;;4.60;;
49101;SDS011;34913;47.520;19.186;2023-03-19T08:50:54;6.95;;;4.82;;
49101;SDS011;34913;47.520;19.186;2023-03-19T08:53:21;9.95;;;5.00;;
49101;SDS011;34913;47.520;19.186;2023-03-19T08:55:51;10.20;;;4.60;;
49101;SDS011;34913;47.520;19.186;2023-03-19T08:58:20;9.05;;;5.38;;
49101;SDS011;34913;47.520;19.186;2023-03-19T09:00:46;6.78;;;4.50;;
49101;SDS011;34913;47.520;19.186;2023-03-19T09:03:13;7.38;;;4.43;;
49101;SDS011;34913;47.520;19.186;2023-03-19T09:05:38;6.65;;;4.30;;
49101;SDS011;34913;47.520;19.186;2023-03-19T09:08:04;5.75;;;4.32;;
49101;SDS011;34913;47.520;19.186;2023-03-19T09:10:30;6.57;;;4.28;;
49101;SDS011;34913;47.520;19.186;2023-03-19T09:12:56;6.47;;;4.15;;
49101;SDS011;34913;47.520;19.186;2023-03-19T09:15:22;6.28;;;3.97;;
49101;SDS011;34913;47.520;19.186;2023-03-19T09:17:48;5.55;;;4.07;;
49101;SDS011;34913;47.520;19.186;2023-03-19T09:20:13;6.53;;;4.20;;
49101;SDS011;34913;47.520;19.186;2023-03-19T09:22:39;7.75;;;4.45;;
49101;SDS011;34913;47.520;19.186;2023-03-19T09:25:05;6.20;;;4.10;;
49101;SDS011;34913;47.520;19.186;2023-03-19T09:27:31;6.57;;;4.10;;
49101;SDS011;34913;47.520;19.186;2023-03-19T09:29:56;9.13;;;4.38;;
49101;SDS011;34913;47.520;19.186;2023-03-19T09:32:22;10.15;;;4.00;;
49101;SDS011;34913;47.520;19.186;2023-03-19T09:34:48;5.78;;;3.97;;
49101;SDS011;34913;47.520;19.186;2023-03-19T09:37:13;8.18;;;4.22;;
49101;SDS011;34913;47.520;19.186;2023-03-19T09:39:39;5.18;;;4.03;;
49101;SDS011;34913;47.520;19.186;2023-03-19T09:45:13;5.63;;;3.97;;
49101;SDS011;34913;47.520;19.186;2023-03-19T09:47:40;6.72;;;4.07;;
49101;SDS011;34913;47.520;19.186;2023-03-19T09:50:12;7.35;;;4.63;;
49101;SDS011;34913;47.520;19.186;2023-03-19T09:57:43;6.47;;;4.47;;
49101;SDS011;34913;47.520;19.186;2023-03-19T10:00:12;7.45;;;4.25;;
49101;SDS011;34913;47.520;19.186;2023-03-19T10:02:46;6.80;;;4.70;;
49101;SDS011;34913;47.520;19.186;2023-03-19T10:05:26;7.85;;;4.80;;
49101;SDS011;34913;47.520;19.186;2023-03-19T10:16:23;6.97;;;4.47;;
49101;SDS011;34913;47.520;19.186;2023-03-19T10:18:51;6.55;;;4.65;;
49101;SDS011;34913;47.520;19.186;2023-03-19T10:21:36;9.48;;;4.93;;
49101;SDS011;34913;47.520;19.186;2023-03-19T10:24:36;8.68;;;4.90;;
49101;SDS011;34913;47.520;19.186;2023-03-19T10:27:11;6.60;;;4.63;;
49101;SDS011;34913;47.520;19.186;2023-03-19T10:29:40;8.27;;;4.40;;
49101;SDS011;34913;47.520;19.186;2023-03-19T10:34:51;6.43;;;4.57;;
49101;SDS011;34913;47.520;19.186;2023-03-19T10:37:26;7.30;;;4.88;;
49101;SDS011;34913;47.520;19.186;2023-03-19T10:39:59;6.65;;;4.53;;
49101;SDS011;34913;47.520;19.186;2023-03-19T10:42:45;7.45;;;4.55;;
49101;SDS011;34913;47.520;19.186;2023-03-19T10:47:53;6.78;;;4.30;;
49101;SDS011;34913;47.520;19.186;2023-03-19T10:50:21;8.27;;;4.25;;
49101;SDS011;34913;47.520;19.186;2023-03-19T10:53:05;8.00;;;4.82;;
49101;SDS011;34913;47.520;19.186;2023-03-19T10:55:54;5.68;;;4.30;;
49101;SDS011;34913;47.520;19.186;2023-03-19T10:58:24;6.78;;;4.82;;
49101;SDS011;34913;47.520;19.186;2023-03-19T11:00:55;7.18;;;4.60;;
49101;SDS011;34913;47.520;19.186;2023-03-19T11:03:35;5.95;;;4.50;;
49101;SDS011;34913;47.520;19.186;2023-03-19T11:06:16;7.38;;;4.88;;
49101;SDS011;34913;47.520;19.186;2023-03-19T11:11:35;7.00;;;4.93;;
49101;SDS011;34913;47.520;19.186;2023-03-19T11:14:16;7.65;;;4.47;;
49101;SDS011;34913;47.520;19.186;2023-03-19T11:16:54;6.43;;;4.40;;
49101;SDS011;34913;47.520;19.186;2023-03-19T11:19:23;5.80;;;4.07;;
49101;SDS011;34913;47.520;19.186;2023-03-19T11:24:37;5.07;;;3.80;;
49101;SDS011;34913;47.520;19.186;2023-03-19T11:27:04;7.38;;;4.22;;
49101;SDS011;34913;47.520;19.186;2023-03-19T11:29:31;6.57;;;4.60;;
49101;SDS011;34913;47.520;19.186;2023-03-19T11:37:29;6.32;;;4.18;;
49101;SDS011;34913;47.520;19.186;2023-03-19T11:40:13;4.80;;;3.75;;
49101;SDS011;34913;47.520;19.186;2023-03-19T11:50:57;7.40;;;4.40;;
49101;SDS011;34913;47.520;19.186;2023-03-19T12:09:34;5.20;;;3.67;;
49101;SDS011;34913;47.520;19.186;2023-03-19T12:12:05;5.43;;;3.60;;
49101;SDS011;34913;47.520;19.186;2023-03-19T12:14:53;4.22;;;3.45;;
49101;SDS011;34913;47.520;19.186;2023-03-19T12:17:28;4.80;;;3.42;;
49101;SDS011;34913;47.520;19.186;2023-03-19T12:20:12;7.25;;;3.58;;
49101;SDS011;34913;47.520;19.186;2023-03-19T12:25:27;5.80;;;3.65;;
49101;SDS011;34913;47.520;19.186;2023-03-19T12:28:18;4.30;;;3.60;;
49101;SDS011;34913;47.520;19.186;2023-03-19T12:33:39;4.90;;;3.38;;
49101;SDS011;34913;47.520;19.186;2023-03-19T12:36:26;5.55;;;3.38;;
49101;SDS011;34913;47.520;19.186;2023-03-19T12:38:58;7.13;;;3.55;;
49101;SDS011;34913;47.520;19.186;2023-03-19T12:41:29;4.18;;;3.30;;
49101;SDS011;34913;47.520;19.186;2023-03-19T12:44:05;7.18;;;3.70;;
49101;SDS011;34913;47.520;19.186;2023-03-19T12:46:50;4.88;;;3.33;;
49101;SDS011;34913;47.520;19.186;2023-03-19T12:52:00;4.72;;;3.42;;
49101;SDS011;34913;47.520;19.186;2023-03-19T12:54:33;6.68;;;3.38;;
49101;SDS011;34913;47.520;19.186;2023-03-19T12:59:49;7.13;;;3.47;;
49101;SDS011;34913;47.520;19.186;2023-03-19T13:10:21;6.68;;;3.78;;
49101;SDS011;34913;47.520;19.186;2023-03-19T13:12:47;5.00;;;3.83;;
49101;SDS011;34913;47.520;19.186;2023-03-19T13:15:18;8.15;;;3.90;;
49101;SDS011;34913;47.520;19.186;2023-03-19T13:23:25;5.20;;;3.78;;
49101;SDS011;34913;47.520;19.186;2023-03-19T13:25:57;5.50;;;3.63;;
49101;SDS011;34913;47.520;19.186;2023-03-19T13:28:29;5.18;;;3.75;;
49101;SDS011;34913;47.520;19.186;2023-03-19T13:33:28;6.38;;;3.70;;
49101;SDS011;34913;47.520;19.186;2023-03-19T13:35:55;5.40;;;3.70;;
49101;SDS011;34913;47.520;19.186;2023-03-19T13:38:25;5.57;;;3.75;;
49101;SDS011;34913;47.520;19.186;2023-03-19T13:40:57;6.57;;;3.90;;
49101;SDS011;34913;47.520;19.186;2023-03-19T13:45:53;5.03;;;3.70;;
49101;SDS011;34913;47.520;19.186;2023-03-19T13:55:59;5.95;;;4.03;;
49101;SDS011;34913;47.520;19.186;2023-03-19T13:58:28;5.47;;;3.80;;
49101;SDS011;34913;47.520;19.186;2023-03-19T14:03:54;6.65;;;3.50;;
49101;SDS011;34913;47.520;19.186;2023-03-19T14:09:04;5.50;;;3.63;;
49101;SDS011;34913;47.520;19.186;2023-03-19T14:11:50;7.32;;;3.60;;
49101;SDS011;34913;47.520;19.186;2023-03-19T14:14:15;8.13;;;3.30;;
49101;SDS011;34913;47.520;19.186;2023-03-19T14:16:41;5.25;;;3.40;;
49101;SDS011;34913;47.520;19.186;2023-03-19T14:19:11;4.85;;;3.50;;
49101;SDS011;34913;47.520;19.186;2023-03-19T14:21:44;7.53;;;3.22;;
49101;SDS011;34913;47.520;19.186;2023-03-19T14:26:57;5.18;;;3.30;;
49101;SDS011;34913;47.520;19.186;2023-03-19T14:29:27;8.45;;;3.90;;
49101;SDS011;34913;47.520;19.186;2023-03-19T14:31:56;6.22;;;3.78;;
49101;SDS011;34913;47.520;19.186;2023-03-19T14:34:26;4.47;;;3.40;;
49101;SDS011;34913;47.520;19.186;2023-03-19T14:37:07;4.75;;;3.45;;
49101;SDS011;34913;47.520;19.186;2023-03-19T14:40:02;4.95;;;3.10;;
49101;SDS011;34913;47.520;19.186;2023-03-19T14:50:44;4.88;;;3.20;;
49101;SDS011;34913;47.520;19.186;2023-03-19T14:53:09;4.85;;;3.70;;
49101;SDS011;34913;47.520;19.186;2023-03-19T14:55:39;6.57;;;3.70;;
49101;SDS011;34913;47.520;19.186;2023-03-19T14:58:05;5.68;;;3.40;;
49101;SDS011;34913;47.520;19.186;2023-03-19T15:00:49;6.82;;;3.80;;
49101;SDS011;34913;47.520;19.186;2023-03-19T15:05:57;5.07;;;3.53;;
49101;SDS011;34913;47.520;19.186;2023-03-19T15:08:25;5.20;;;3.50;;
49101;SDS011;34913;47.520;19.186;2023-03-19T15:19:07;7.72;;;4.20;;
49101;SDS011;34913;47.520;19.186;2023-03-19T15:21:36;5.22;;;3.75;;
49101;SDS011;34913;47.520;19.186;2023-03-19T15:24:02;6.50;;;4.10;;
49101;SDS011;34913;47.520;19.186;2023-03-19T15:26:35;4.55;;;3.20;;
49101;SDS011;34913;47.520;19.186;2023-03-19T15:29:01;7.72;;;4.88;;
49101;SDS011;34913;47.520;19.186;2023-03-19T15:31:40;11.98;;;7.28;;
49101;SDS011;34913;47.520;19.186;2023-03-19T15:34:30;5.68;;;4.03;;
49101;SDS011;34913;47.520;19.186;2023-03-19T15:37:00;4.82;;;3.33;;
49101;SDS011;34913;47.520;19.186;2023-03-19T15:39:31;4.50;;;3.25;;
49101;SDS011;34913;47.520;19.186;2023-03-19T15:41:59;5.57;;;3.83;;
49101;SDS011;34913;47.520;19.186;2023-03-19T15:47:00;10.10;;;7.03;;
49101;SDS011;34913;47.520;19.186;2023-03-19T15:49:34;6.32;;;3.90;;
49101;SDS011;34913;47.520;19.186;2023-03-19T15:52:07;6.00;;;3.45;;
49101;SDS011;34913;47.520;19.186;2023-03-19T15:54:36;6.73;;;3.20;;
49101;SDS011;34913;47.520;19.186;2023-03-19T15:57:02;4.40;;;3.28;;
49101;SDS011;34913;47.520;19.186;2023-03-19T15:59:30;4.97;;;3.40;;
49101;SDS011;34913;47.520;19.186;2023-03-19T16:01:59;5.63;;;3.60;;
49101;SDS011;34913;47.520;19.186;2023-03-19T16:04:27;8.13;;;3.42;;
49101;SDS011;34913;47.520;19.186;2023-03-19T16:06:55;13.85;;;3.88;;
49101;SDS011;34913;47.520;19.186;2023-03-19T16:09:30;5.40;;;3.67;;
49101;SDS011;34913;47.520;19.186;2023-03-19T16:11:57;4.88;;;3.28;;
49101;SDS011;34913;47.520;19.186;2023-03-19T16:14:30;8.18;;;3.90;;
49101;SDS011;34913;47.520;19.186;2023-03-19T16:17:11;10.38;;;4.10;;
49101;SDS011;34913;47.520;19.186;2023-03-19T16:19:54;6.05;;;3.50;;
49101;SDS011;34913;47.520;19.186;2023-03-19T16:22:29;6.78;;;3.70;;
49101;SDS011;34913;47.520;19.186;2023-03-19T16:24:56;6.90;;;4.15;;
49101;SDS011;34913;47.520;19.186;2023-03-19T16:27:35;6.30;;;3.92;;
49101;SDS011;34913;47.520;19.186;2023-03-19T16:30:03;7.40;;;4.55;;
49101;SDS011;34913;47.520;19.186;2023-03-19T16:32:37;8.27;;;4.97;;
49101;SDS011;34913;47.520;19.186;2023-03-19T16:35:11;9.52;;;5.10;;
49101;SDS011;34913;47.520;19.186;2023-03-19T16:42:39;5.28;;;4.05;;
49101;SDS011;34913;47.520;19.186;2023-03-19T16:47:49;7.18;;;4.57;;
49101;SDS011;34913;47.520;19.186;2023-03-19T16:50:17;7.47;;;4.63;;
49101;SDS011;34913;47.520;19.186;2023-03-19T16:52:44;5.72;;;4.40;;